Time;durP1;ratioP1;P1;durP2;ratioP2;P2;SDS_P1;SDS_P2;PMS_P1;PMS_P2;Temp;Humidity;BMP_temperature;BMP_pressure;BME280_temperature;BME280_humidity;BME280_pressure;Samples;Min_cycle;Max_cycle;Signal;HPM_P1;HPM_P2
2023/11/07 00:02:04;;;;;;;1.10;1.00;;;;;;;2.59;100.00;97509.47;6192309;28;20394;-47
2023/11/07 00:05:09;;;;;;;0.93;0.73;;;;;;;2.59;100.00;97519.19;6207118;28;20199;-48
2023/11/07 00:08:11;;;;;;;1.63;0.80;;;;;;;2.61;100.00;97519.81;6200499;28;20207;-47
2023/11/07 00:11:13;;;;;;;0.77;0.70;;;;;;;2.51;100.00;97514.06;6182154;28;20584;-47
2023/11/07 00:14:17;;;;;;;1.80;0.93;;;;;;;2.64;100.00;97539.66;6186620;28;20203;-46
2023/11/07 00:17:20;;;;;;;2.40;1.30;;;;;;;2.48;100.00;97525.81;6198607;28;20224;-46
2023/11/07 00:20:23;;;;;;;3.00;1.23;;;;;;;2.59;100.00;97548.94;6202429;28;20230;-46
2023/11/07 00:23:25;;;;;;;3.37;1.10;;;;;;;2.51;100.00;97546.47;6204699;28;20294;-48
2023/11/07 00:26:27;;;;;;;2.80;1.30;;;;;;;2.19;100.00;97516.34;6195703;28;20197;-46
2023/11/07 00:29:29;;;;;;;3.23;1.47;;;;;;;2.40;100.00;97552.25;6203599;28;20227;-45
2023/11/07 00:32:32;;;;;;;3.20;1.20;;;;;;;2.42;100.00;97557.34;6205184;28;20210;-47
2023/11/07 00:35:34;;;;;;;2.10;1.10;;;;;;;2.38;100.00;97553.47;6203395;28;20204;-47
2023/11/07 00:38:36;;;;;;;3.27;1.10;;;;;;;2.42;100.00;97567.84;6211019;28;20298;-46
2023/11/07 00:41:38;;;;;;;0.87;0.87;;;;;;;2.44;100.00;97576.34;6189530;28;20303;-47
2023/11/07 00:44:41;;;;;;;1.73;0.90;;;;;;;2.49;100.00;97582.66;6202144;28;20199;-47
2023/11/07 00:47:44;;;;;;;2.33;1.00;;;;;;;2.46;100.00;97590.09;6196650;28;20278;-46
2023/11/07 00:50:46;;;;;;;4.17;1.10;;;;;;;2.42;100.00;97596.78;6186654;28;20273;-48
2023/11/07 00:53:50;;;;;;;2.87;1.00;;;;;;;2.35;100.00;97593.25;6211470;28;20207;-46
2023/11/07 00:56:52;;;;;;;3.20;0.83;;;;;;;2.31;100.00;97593.63;6202273;28;20201;-48
2023/11/07 00:59:54;;;;;;;4.53;0.97;;;;;;;2.41;100.00;97614.31;6185942;28;20201;-47
2023/11/07 01:02:56;;;;;;;2.67;0.90;;;;;;;2.35;100.00;97614.28;6204751;28;20210;-47
2023/11/07 01:05:58;;;;;;;2.03;0.70;;;;;;;2.40;100.00;97611.91;6191455;28;20216;-49
2023/11/07 01:09:03;;;;;;;1.00;0.90;;;;;;;2.46;100.00;97616.38;6186833;28;20200;-50
2023/11/07 01:12:08;;;;;;;1.97;0.97;;;;;;;2.61;100.00;97614.50;6208426;28;20290;-50
2023/11/07 01:15:10;;;;;;;2.50;1.20;;;;;;;2.69;100.00;97609.06;6202349;28;20257;-48
2023/11/07 01:18:12;;;;;;;2.47;1.17;;;;;;;2.73;100.00;97607.66;6205314;28;20207;-50
2023/11/07 01:21:15;;;;;;;1.40;0.70;;;;;;;2.74;100.00;97625.06;6181917;28;20190;-49
2023/11/07 01:24:17;;;;;;;1.13;0.97;;;;;;;2.73;100.00;97620.03;6189416;28;20205;-47
2023/11/07 01:27:19;;;;;;;3.30;0.80;;;;;;;2.65;100.00;97607.00;6160757;28;20592;-50
2023/11/07 01:30:23;;;;;;;2.17;0.70;;;;;;;2.69;100.00;97630.09;6202768;28;20378;-47
2023/11/07 01:33:25;;;;;;;1.20;0.87;;;;;;;2.74;100.00;97640.84;6220259;28;20199;-46
2023/11/07 01:36:28;;;;;;;1.23;0.97;;;;;;;2.74;100.00;97645.31;6203594;28;20295;-46
2023/11/07 01:39:30;;;;;;;2.93;0.80;;;;;;;2.71;100.00;97649.16;6200738;28;20215;-46
2023/11/07 01:42:41;;;;;;;3.80;0.90;;;;;;;2.64;100.00;97631.69;6220462;28;20202;-47
2023/11/07 01:45:43;;;;;;;1.73;0.90;;;;;;;2.76;100.00;97644.13;6220020;28;20200;-48
2023/11/07 01:48:46;;;;;;;3.80;1.40;;;;;;;2.74;100.00;97630.34;6220386;28;20196;-48
2023/11/07 01:51:50;;;;;;;1.63;0.80;;;;;;;2.91;100.00;97632.69;6217066;28;20299;-48
2023/11/07 01:54:52;;;;;;;4.07;1.10;;;;;;;2.96;100.00;97635.53;6204196;28;20231;-48
2023/11/07 01:58:00;;;;;;;2.10;1.20;;;;;;;3.00;100.00;97613.88;6218141;28;20193;-50
2023/11/07 02:01:03;;;;;;;1.43;0.80;;;;;;;3.30;100.00;97632.03;6197776;28;20191;-48
2023/11/07 02:04:05;;;;;;;1.03;0.90;;;;;;;3.45;100.00;97632.72;6220454;28;20191;-47
2023/11/07 02:07:08;;;;;;;1.80;1.03;;;;;;;3.60;100.00;97625.47;6218591;28;20252;-49
2023/11/07 02:10:11;;;;;;;2.27;0.90;;;;;;;3.79;100.00;97629.16;6202170;28;20218;-47
2023/11/07 02:13:13;;;;;;;7.10;1.20;;;;;;;3.92;100.00;97631.00;6219207;28;20550;-47
2023/11/07 02:16:15;;;;;;;3.20;0.97;;;;;;;4.03;100.00;97630.41;6198597;28;20572;-49
2023/11/07 02:19:17;;;;;;;1.83;0.90;;;;;;;4.11;100.00;97624.13;6200783;28;20203;-47
2023/11/07 02:22:23;;;;;;;3.33;1.13;;;;;;;4.21;100.00;97635.09;6219616;28;20189;-51
2023/11/07 02:25:25;;;;;;;2.17;1.30;;;;;;;4.30;100.00;97625.97;6216721;28;20189;-48
2023/11/07 02:28:27;;;;;;;2.17;0.93;;;;;;;4.38;100.00;97623.13;6199757;28;20212;-47
2023/11/07 02:31:29;;;;;;;1.00;0.80;;;;;;;4.22;100.00;97594.50;6200158;28;20780;-50
2023/11/07 02:34:31;;;;;;;1.90;0.90;;;;;;;4.39;100.00;97616.03;6219076;28;20192;-47
2023/11/07 02:37:34;;;;;;;2.17;0.80;;;;;;;4.53;100.00;97638.75;6217661;28;20213;-48
2023/11/07 02:40:36;;;;;;;1.03;0.77;;;;;;;4.63;100.00;97641.78;6215321;28;20692;-48
2023/11/07 02:43:38;;;;;;;3.40;1.20;;;;;;;4.90;100.00;97645.19;6219293;28;20185;-47
2023/11/07 02:46:41;;;;;;;1.43;1.10;;;;;;;5.27;100.00;97648.13;6217563;28;20193;-47
2023/11/07 02:49:43;;;;;;;1.33;0.97;;;;;;;5.55;100.00;97649.63;6217038;28;20566;-47
2023/11/07 02:52:45;;;;;;;2.97;1.27;;;;;;;5.79;100.00;97656.84;6218556;28;20194;-49
2023/11/07 02:55:47;;;;;;;1.03;0.73;;;;;;;5.87;100.00;97661.88;6218859;28;20199;-47
2023/11/07 02:58:49;;;;;;;2.60;1.73;;;;;;;6.29;100.00;97670.19;6219055;28;20202;-49
2023/11/07 03:01:51;;;;;;;2.60;1.20;;;;;;;6.53;100.00;97670.44;6200640;28;20204;-49
2023/11/07 03:04:54;;;;;;;2.87;1.30;;;;;;;7.64;100.00;97658.91;6200399;28;20216;-50
2023/11/07 03:08:01;;;;;;;2.37;1.00;;;;;;;8.15;100.00;97669.00;6215753;28;20220;-49
2023/11/07 03:11:03;;;;;;;2.70;0.90;;;;;;;8.09;100.00;97671.78;6218940;28;20219;-51
2023/11/07 03:14:05;;;;;;;3.37;1.10;;;;;;;8.17;100.00;97682.84;6200932;28;20276;-48
2023/11/07 03:17:08;;;;;;;1.27;0.80;;;;;;;8.03;100.00;97670.84;6217734;28;20218;-48
2023/11/07 03:20:11;;;;;;;0.70;0.60;;;;;;;7.95;100.00;97649.91;6200352;28;20749;-50
2023/11/07 03:23:13;;;;;;;1.80;0.83;;;;;;;8.22;100.00;97672.38;6218155;28;20198;-48
2023/11/07 03:26:15;;;;;;;1.73;0.57;;;;;;;7.89;100.00;97667.53;6199861;28;20212;-51
2023/11/07 03:29:17;;;;;;;2.20;0.80;;;;;;;7.40;100.00;97644.72;6216395;28;20206;-49
2023/11/07 03:32:20;;;;;;;0.90;0.70;;;;;;;7.42;100.00;97669.16;6200460;28;20243;-49
2023/11/07 03:35:23;;;;;;;1.13;0.70;;;;;;;7.33;100.00;97676.56;6220574;28;20261;-51
2023/11/07 03:38:26;;;;;;;2.00;0.90;;;;;;;7.58;100.00;97683.63;6218532;28;20211;-47
2023/11/07 03:41:29;;;;;;;0.70;0.40;;;;;;;7.68;100.00;97687.38;6199955;28;20688;-48
2023/11/07 03:44:31;;;;;;;2.47;1.00;;;;;;;7.52;100.00;97693.28;6218148;28;20283;-51
2023/11/07 03:47:34;;;;;;;0.80;0.60;;;;;;;7.62;100.00;97690.13;6216598;28;20755;-50
2023/11/07 03:50:37;;;;;;;1.73;0.70;;;;;;;8.14;97.68;97685.97;6217907;28;20313;-51
2023/11/07 03:53:39;;;;;;;1.77;0.70;;;;;;;8.12;100.00;97692.53;6217988;28;20203;-51
2023/11/07 03:56:41;;;;;;;1.20;0.60;;;;;;;8.27;96.12;97688.44;6218195;28;20227;-51
2023/11/07 03:59:46;;;;;;;1.70;0.83;;;;;;;8.16;97.95;97696.34;6216626;28;20246;-47
2023/11/07 04:02:48;;;;;;;0.63;0.60;;;;;;;8.10;97.26;97706.03;6218300;28;20578;-48
2023/11/07 04:05:50;;;;;;;0.80;0.70;;;;;;;7.94;98.39;97694.19;6217872;28;20204;-51
2023/11/07 04:08:53;;;;;;;2.30;0.80;;;;;;;7.58;99.65;97700.34;6217160;28;20204;-49
2023/11/07 04:11:56;;;;;;;1.10;0.80;;;;;;;7.08;100.00;97708.41;6218371;28;20208;-49
2023/11/07 04:15:01;;;;;;;1.97;1.27;;;;;;;6.64;100.00;97702.28;6217613;28;20813;-47
2023/11/07 04:18:03;;;;;;;1.83;0.80;;;;;;;6.32;100.00;97706.81;6215633;28;20208;-48
2023/11/07 04:21:07;;;;;;;2.50;0.97;;;;;;;5.99;100.00;97704.34;6217774;28;20195;-48
2023/11/07 04:24:12;;;;;;;0.80;0.60;;;;;;;5.78;100.00;97704.63;6216603;28;20210;-50
2023/11/07 04:27:14;;;;;;;1.00;0.70;;;;;;;5.64;100.00;97699.41;6216396;28;20204;-47
2023/11/07 04:30:17;;;;;;;0.80;0.60;;;;;;;5.51;100.00;97698.63;6208205;28;20239;-47
2023/11/07 04:33:19;;;;;;;0.93;0.83;;;;;;;5.33;100.00;97694.03;6184669;28;20243;-47
2023/11/07 04:36:22;;;;;;;2.53;0.80;;;;;;;5.21;100.00;97699.13;6182160;28;20656;-48
2023/11/07 04:39:25;;;;;;;0.93;0.50;;;;;;;5.09;100.00;97703.44;6193226;28;20196;-47
2023/11/07 04:42:27;;;;;;;0.90;0.67;;;;;;;5.02;100.00;97707.91;6186050;28;20550;-47
2023/11/07 04:45:29;;;;;;;2.77;0.70;;;;;;;4.92;100.00;97706.47;6188006;28;20194;-49
2023/11/07 04:48:34;;;;;;;1.53;0.70;;;;;;;4.88;100.00;97712.41;6186591;28;20207;-48
2023/11/07 04:51:36;;;;;;;1.40;0.60;;;;;;;4.83;100.00;97717.47;6185343;28;20208;-49
2023/11/07 04:54:39;;;;;;;1.83;0.60;;;;;;;4.75;100.00;97713.22;6193634;28;20204;-48
2023/11/07 04:57:41;;;;;;;0.80;0.50;;;;;;;4.70;100.00;97715.66;6190690;28;20198;-47
2023/11/07 05:00:44;;;;;;;1.70;0.57;;;;;;;4.64;100.00;97712.00;6179156;28;20684;-46
2023/11/07 05:03:48;;;;;;;0.40;0.40;;;;;;;4.58;100.00;97710.19;6196883;28;20192;-47
2023/11/07 05:06:51;;;;;;;0.67;0.50;;;;;;;4.46;100.00;97708.34;6187296;28;20198;-46
2023/11/07 05:09:57;;;;;;;1.17;0.50;;;;;;;4.45;100.00;97719.91;6184925;28;20730;-48
2023/11/07 05:13:00;;;;;;;0.80;0.40;;;;;;;4.44;100.00;97719.09;6193121;28;20759;-47
2023/11/07 05:16:02;;;;;;;1.07;0.57;;;;;;;4.40;100.00;97720.50;6186680;28;20673;-49
2023/11/07 05:19:05;;;;;;;2.53;1.00;;;;;;;4.33;100.00;97715.19;6191530;28;20201;-49
2023/11/07 05:22:10;;;;;;;2.20;1.77;;;;;;;4.34;100.00;97711.56;6182946;28;20758;-47
2023/11/07 05:25:12;;;;;;;1.30;1.20;;;;;;;4.37;100.00;97705.88;6170866;28;20193;-48
2023/11/07 05:28:14;;;;;;;1.13;0.87;;;;;;;4.47;100.00;97699.41;6190789;28;20205;-48
2023/11/07 05:31:16;;;;;;;0.73;0.73;;;;;;;4.50;100.00;97697.19;6212587;28;20570;-47
2023/11/07 05:34:18;;;;;;;1.90;0.60;;;;;;;4.60;100.00;97696.78;6216918;28;20195;-47
2023/11/07 05:37:21;;;;;;;1.03;0.50;;;;;;;4.64;100.00;97695.34;6220296;28;20686;-47
2023/11/07 05:40:24;;;;;;;1.43;0.60;;;;;;;4.66;100.00;97695.94;6220423;28;20195;-48
2023/11/07 05:43:26;;;;;;;1.57;0.40;;;;;;;4.73;100.00;97698.56;6219978;28;20194;-48
2023/11/07 05:46:28;;;;;;;0.73;0.50;;;;;;;4.80;100.00;97709.97;6220189;28;20356;-48
2023/11/07 05:49:31;;;;;;;0.60;0.43;;;;;;;4.84;100.00;97712.00;6216552;28;20559;-47
2023/11/07 05:52:33;;;;;;;0.30;0.30;;;;;;;4.88;100.00;97715.03;6219117;28;20206;-50
2023/11/07 05:55:35;;;;;;;0.30;0.30;;;;;;;4.89;100.00;97716.66;6220288;28;20193;-47
2023/11/07 05:58:37;;;;;;;0.83;0.50;;;;;;;4.66;100.00;97685.41;6218410;28;20213;-50
2023/11/07 06:01:41;;;;;;;2.70;0.50;;;;;;;4.90;100.00;97726.19;6220344;28;20194;-49
2023/11/07 06:04:54;;;;;;;1.03;0.47;;;;;;;4.86;100.00;97722.34;6221350;28;20201;-48
2023/11/07 06:07:58;;;;;;;0.77;0.60;;;;;;;4.86;100.00;97719.69;6220349;28;20197;-49
2023/11/07 06:11:01;;;;;;;0.97;0.50;;;;;;;4.91;100.00;97722.53;6220106;28;20211;-48
2023/11/07 06:14:03;;;;;;;0.60;0.53;;;;;;;5.04;100.00;97719.06;6220019;28;20540;-47
2023/11/07 06:17:05;;;;;;;0.93;0.80;;;;;;;5.25;100.00;97725.94;6219327;28;20305;-48
2023/11/07 06:20:08;;;;;;;0.83;0.50;;;;;;;5.55;100.00;97723.63;6219781;28;20211;-47
2023/11/07 06:23:10;;;;;;;0.50;0.50;;;;;;;5.49;100.00;97713.91;6217658;28;20693;-47
2023/11/07 06:26:12;;;;;;;0.60;0.50;;;;;;;5.51;100.00;97732.97;6219431;28;20203;-48
2023/11/07 06:29:14;;;;;;;1.50;0.70;;;;;;;5.53;100.00;97741.53;6217451;28;20743;-50
2023/11/07 06:32:17;;;;;;;1.03;0.50;;;;;;;5.51;100.00;97746.19;6197456;28;20211;-48
2023/11/07 06:35:19;;;;;;;1.30;0.50;;;;;;;5.51;100.00;97743.53;6218126;28;20686;-48
2023/11/07 06:38:25;;;;;;;1.80;0.43;;;;;;;5.49;100.00;97746.41;6219533;28;20202;-47
2023/11/07 06:41:28;;;;;;;0.83;0.50;;;;;;;5.50;100.00;97747.22;6219404;28;20217;-47
2023/11/07 06:44:30;;;;;;;1.97;0.40;;;;;;;5.48;100.00;97750.06;6216459;28;20200;-50
2023/11/07 06:47:32;;;;;;;0.37;0.37;;;;;;;5.44;100.00;97739.09;6217973;28;20203;-49
2023/11/07 06:50:34;;;;;;;0.40;0.40;;;;;;;5.46;100.00;97741.53;6219177;28;20225;-49
2023/11/07 06:53:36;;;;;;;0.50;0.50;;;;;;;5.62;100.00;97740.28;6200328;28;20190;-48
2023/11/07 06:56:39;;;;;;;0.97;0.80;;;;;;;5.53;100.00;97715.09;6218746;28;20208;-49
2023/11/07 06:59:41;;;;;;;2.43;0.60;;;;;;;5.66;100.00;97704.47;6216360;28;20221;-50
2023/11/07 07:02:44;;;;;;;1.20;0.50;;;;;;;6.51;100.00;97739.47;6218046;28;20199;-50
2023/11/07 07:05:47;;;;;;;0.50;0.40;;;;;;;7.47;100.00;97754.09;6218753;28;20328;-50
2023/11/07 07:08:52;;;;;;;0.50;0.37;;;;;;;7.74;100.00;97742.19;6218720;28;20693;-48
2023/11/07 07:11:54;;;;;;;0.63;0.50;;;;;;;8.42;96.33;97745.63;6217102;28;20216;-48
2023/11/07 07:14:56;;;;;;;1.30;0.40;;;;;;;8.29;99.79;97738.63;6218401;28;20202;-49
2023/11/07 07:18:04;;;;;;;0.50;0.40;;;;;;;8.06;100.00;97739.34;6215958;28;20274;-48
2023/11/07 07:21:08;;;;;;;0.80;0.50;;;;;;;8.15;97.76;97745.16;6216770;28;20190;-48
2023/11/07 07:24:21;;;;;;;0.40;0.30;;;;;;;8.52;95.95;97748.53;6217323;28;20207;-47
2023/11/07 07:27:29;;;;;;;0.30;0.30;;;;;;;8.58;98.33;97758.28;6215349;28;20266;-49
2023/11/07 07:30:32;;;;;;;0.60;0.30;;;;;;;8.71;96.66;97762.56;6216259;28;20229;-48
2023/11/07 07:33:36;;;;;;;1.17;0.63;;;;;;;8.83;97.27;97767.91;6218106;28;20209;-49
2023/11/07 07:36:44;;;;;;;0.83;0.40;;;;;;;8.87;97.07;97763.78;6217137;28;20581;-47
2023/11/07 07:39:47;;;;;;;1.93;0.30;;;;;;;8.93;96.77;97771.63;6217663;28;20571;-51
2023/11/07 07:42:49;;;;;;;0.93;0.50;;;;;;;8.96;95.91;97773.00;6217308;28;20835;-49
2023/11/07 07:45:55;;;;;;;0.70;0.50;;;;;;;9.04;98.80;97770.00;6216978;28;20919;-48
2023/11/07 07:48:57;;;;;;;1.37;0.33;;;;;;;8.96;98.42;97770.34;6217271;28;20699;-50
2023/11/07 07:52:08;;;;;;;0.60;0.43;;;;;;;8.92;99.43;97763.88;6217607;28;20213;-50
2023/11/07 07:55:11;;;;;;;1.13;0.60;;;;;;;8.93;100.00;97776.13;6199169;28;20201;-48
2023/11/07 07:58:29;;;;;;;0.40;0.40;;;;;;;8.96;100.00;97784.44;6218138;28;20231;-50
2023/11/07 08:01:31;;;;;;;1.43;0.50;;;;;;;8.99;100.00;97786.63;6216453;28;20535;-47
2023/11/07 08:04:35;;;;;;;0.40;0.40;;;;;;;9.08;100.00;97781.81;6217038;28;20722;-50
2023/11/07 08:07:37;;;;;;;0.67;0.47;;;;;;;9.15;100.00;97785.16;6216871;28;20320;-49
2023/11/07 08:10:39;;;;;;;0.87;0.60;;;;;;;9.22;100.00;97787.72;6215922;28;20223;-50
2023/11/07 08:13:41;;;;;;;2.50;0.60;;;;;;;9.22;100.00;97766.47;6216413;28;20206;-48
2023/11/07 08:16:43;;;;;;;0.50;0.50;;;;;;;9.42;100.00;97777.56;6216690;28;20207;-50
2023/11/07 08:19:46;;;;;;;0.30;0.30;;;;;;;9.61;100.00;97774.78;6217145;28;20655;-50
2023/11/07 08:22:51;;;;;;;0.43;0.40;;;;;;;9.71;96.48;97759.03;6215576;28;20194;-49
2023/11/07 08:25:54;;;;;;;0.60;0.40;;;;;;;9.94;95.76;97774.13;6214354;28;20226;-49
2023/11/07 08:28:56;;;;;;;0.50;0.50;;;;;;;10.05;95.85;97771.44;6215547;28;20640;-51
2023/11/07 08:31:58;;;;;;;0.37;0.37;;;;;;;10.14;96.57;97774.53;6217311;28;20228;-51
2023/11/07 08:35:00;;;;;;;0.60;0.50;;;;;;;10.20;96.91;97775.47;6217018;28;20202;-50
2023/11/07 08:38:02;;;;;;;0.83;0.40;;;;;;;10.18;95.80;97774.88;6216873;28;20676;-51
2023/11/07 08:41:04;;;;;;;0.53;0.40;;;;;;;10.24;95.33;97784.59;6217175;28;20655;-49
2023/11/07 08:44:08;;;;;;;0.60;0.50;;;;;;;10.30;95.49;97789.78;6217402;28;20542;-51
2023/11/07 08:47:10;;;;;;;0.87;0.50;;;;;;;10.37;95.51;97789.66;6217045;28;20204;-49
2023/11/07 08:50:13;;;;;;;0.30;0.30;;;;;;;10.43;95.19;97796.69;6216932;28;20294;-50
2023/11/07 08:53:18;;;;;;;0.40;0.40;;;;;;;10.51;95.41;97796.31;6217023;28;20227;-49
2023/11/07 08:56:24;;;;;;;0.50;0.40;;;;;;;10.37;95.57;97767.53;6219394;28;20721;-49
2023/11/07 08:59:26;;;;;;;0.60;0.50;;;;;;;10.58;95.23;97806.81;6220377;28;20580;-47
2023/11/07 09:02:29;;;;;;;2.00;0.53;;;;;;;10.58;94.70;97814.81;6221149;28;20719;-49
2023/11/07 09:05:32;;;;;;;0.47;0.30;;;;;;;10.59;94.75;97814.59;6220857;28;20193;-50
2023/11/07 09:08:35;;;;;;;0.40;0.30;;;;;;;10.63;94.51;97822.09;6220146;28;20199;-48
2023/11/07 09:11:37;;;;;;;0.83;0.60;;;;;;;10.66;94.60;97827.75;6220783;28;20585;-51
2023/11/07 09:14:42;;;;;;;0.50;0.50;;;;;;;10.67;93.01;97818.69;6222638;28;20196;-49
2023/11/07 09:17:44;;;;;;;0.53;0.40;;;;;;;10.73;93.66;97817.75;6220820;28;20199;-49
2023/11/07 09:20:47;;;;;;;0.40;0.40;;;;;;;10.77;93.56;97820.75;6221069;28;20340;-48
2023/11/07 09:23:50;;;;;;;0.40;0.40;;;;;;;10.68;93.66;97801.66;6221241;28;20308;-48
2023/11/07 09:26:52;;;;;;;0.50;0.50;;;;;;;10.81;93.15;97814.69;6218382;28;20812;-48
2023/11/07 09:29:57;;;;;;;0.67;0.40;;;;;;;10.84;93.11;97816.09;6220738;28;20236;-48
2023/11/07 09:32:59;;;;;;;1.57;0.67;;;;;;;10.87;93.26;97809.47;6220400;28;20646;-47
2023/11/07 09:36:01;;;;;;;3.57;1.10;;;;;;;10.86;92.84;97813.97;6219878;28;20219;-47
2023/11/07 09:39:05;;;;;;;1.90;0.67;;;;;;;10.85;91.86;97807.03;6220071;28;20676;-51
2023/11/07 09:42:08;;;;;;;0.80;0.70;;;;;;;10.75;91.54;97780.22;6220313;28;20197;-49
2023/11/07 09:45:15;;;;;;;0.73;0.60;;;;;;;10.94;91.18;97802.13;6220552;28;20203;-50
2023/11/07 09:48:21;;;;;;;1.60;1.13;;;;;;;10.98;91.16;97805.91;6219232;28;20641;-49
2023/11/07 09:51:25;;;;;;;2.20;1.27;;;;;;;10.95;90.69;97807.22;6219711;28;20269;-49
2023/11/07 09:54:30;;;;;;;1.93;1.07;;;;;;;10.92;89.98;97802.34;6220356;28;20263;-48
2023/11/07 09:57:35;;;;;;;1.07;0.80;;;;;;;10.95;89.47;97801.06;6202863;28;20540;-48
2023/11/07 10:00:38;;;;;;;1.43;0.87;;;;;;;10.94;88.19;97807.47;6220259;28;20740;-49
2023/11/07 10:03:43;;;;;;;1.30;1.00;;;;;;;10.96;87.44;97808.81;6217308;28;20216;-47
2023/11/07 10:06:45;;;;;;;0.70;0.70;;;;;;;10.97;87.53;97805.09;6218737;28;20192;-49
2023/11/07 10:09:47;;;;;;;3.73;1.00;;;;;;;10.97;88.16;97809.63;6219373;28;20193;-52
2023/11/07 10:12:50;;;;;;;1.20;0.87;;;;;;;10.98;86.60;97806.72;6217264;28;20999;-48
2023/11/07 10:16:06;;;;;;;1.43;0.80;;;;;;;11.02;85.77;97801.72;6219237;28;20196;-49
2023/11/07 10:19:22;;;;;;;1.00;0.60;;;;;;;11.03;82.98;97798.00;6218153;28;20196;-53
2023/11/07 10:22:24;;;;;;;1.13;0.50;;;;;;;11.08;82.41;97801.56;6219609;28;20574;-50
2023/11/07 10:25:35;;;;;;;1.70;0.40;;;;;;;11.16;81.79;97802.22;6219205;28;20200;-51
2023/11/07 10:28:37;;;;;;;0.60;0.40;;;;;;;11.17;80.87;97803.81;6217501;28;20858;-49
2023/11/07 10:31:43;;;;;;;0.40;0.40;;;;;;;11.22;80.40;97796.72;6201753;28;20626;-51
2023/11/07 10:35:00;;;;;;;0.70;0.50;;;;;;;11.15;79.46;97780.06;6197771;28;20193;-48
2023/11/07 10:38:12;;;;;;;0.67;0.47;;;;;;;11.26;78.92;97791.72;6204120;28;20933;-52
2023/11/07 10:41:26;;;;;;;0.63;0.50;;;;;;;11.30;79.18;97792.84;6197579;28;20189;-49
2023/11/07 10:44:29;;;;;;;0.83;0.40;;;;;;;11.35;79.28;97795.59;6200974;28;20880;-48
2023/11/07 10:47:34;;;;;;;0.40;0.40;;;;;;;11.36;79.96;97787.34;6198856;28;20208;-49
2023/11/07 10:50:37;;;;;;;0.40;0.40;;;;;;;11.40;80.88;97785.00;6197170;28;20251;-50
2023/11/07 10:53:44;;;;;;;0.50;0.30;;;;;;;11.41;81.09;97778.59;6208480;28;20237;-51
2023/11/07 10:56:49;;;;;;;1.07;0.40;;;;;;;11.46;81.15;97775.19;6206559;28;20665;-50
2023/11/07 11:00:03;;;;;;;0.60;0.60;;;;;;;11.42;79.69;97769.53;6193666;28;20197;-49
2023/11/07 11:03:11;;;;;;;1.50;0.50;;;;;;;11.37;78.55;97764.13;6201754;28;20198;-48
2023/11/07 11:06:14;;;;;;;0.80;0.60;;;;;;;11.41;77.54;97770.59;6199268;28;20201;-48
2023/11/07 11:09:17;;;;;;;3.00;0.90;;;;;;;11.42;76.43;97769.53;6198541;28;20199;-50
2023/11/07 11:12:21;;;;;;;0.70;0.70;;;;;;;11.45;77.46;97763.72;6201342;28;20205;-51
2023/11/07 11:15:24;;;;;;;0.90;0.60;;;;;;;11.47;78.38;97761.59;6181538;28;20671;-48
2023/11/07 11:18:53;;;;;;;0.97;0.57;;;;;;;11.49;78.75;97761.38;6202383;28;20192;-50
2023/11/07 11:22:09;;;;;;;1.67;0.80;;;;;;;11.51;79.97;97761.94;6201670;28;20267;-49
2023/11/07 11:25:38;;;;;;;0.63;0.60;;;;;;;11.50;80.58;97757.66;6197444;28;20193;-49
2023/11/07 11:28:43;;;;;;;1.27;0.50;;;;;;;11.49;81.30;97748.84;6205760;28;20211;-51
2023/11/07 11:31:46;;;;;;;0.90;0.53;;;;;;;11.47;81.58;97752.81;6188020;28;20684;-49
2023/11/07 11:34:48;;;;;;;0.40;0.40;;;;;;;11.47;82.36;97750.94;6196293;28;20580;-51
2023/11/07 11:38:16;;;;;;;0.80;0.60;;;;;;;11.44;83.36;97743.44;6198895;28;20198;-50
2023/11/07 11:41:39;;;;;;;0.67;0.50;;;;;;;11.42;83.95;97742.88;6182510;28;20201;-52
2023/11/07 11:44:41;;;;;;;0.63;0.50;;;;;;;11.43;85.19;97743.66;6206519;28;20229;-51
2023/11/07 11:47:52;;;;;;;0.63;0.60;;;;;;;11.18;85.73;97699.63;6188737;28;20659;-49
2023/11/07 11:51:38;;;;;;;1.03;0.70;;;;;;;11.30;85.61;97723.50;6185555;28;20200;-48
2023/11/07 11:54:50;;;;;;;2.37;0.70;;;;;;;11.28;85.67;97718.41;6189742;28;20208;-48
2023/11/07 11:58:15;;;;;;;0.70;0.60;;;;;;;11.28;86.53;97714.91;6185453;28;20883;-52
2023/11/07 12:01:18;;;;;;;1.10;0.57;;;;;;;11.24;86.99;97711.97;6188946;28;20224;-47
2023/11/07 12:04:40;;;;;;;0.97;0.60;;;;;;;11.22;87.80;97710.56;6189751;28;20186;-47
2023/11/07 12:07:47;;;;;;;0.97;0.70;;;;;;;11.19;87.99;97709.22;6175602;28;20778;-50
2023/11/07 12:10:56;;;;;;;1.07;0.90;;;;;;;11.19;88.46;97711.88;6194786;28;20205;-48
2023/11/07 12:14:01;;;;;;;1.73;0.80;;;;;;;11.21;87.68;97715.09;6185642;28;20244;-49
2023/11/07 12:17:03;;;;;;;1.10;0.60;;;;;;;11.04;88.60;97677.00;6183428;28;20661;-49
2023/11/07 12:20:08;;;;;;;2.03;0.60;;;;;;;11.23;87.43;97706.84;6189719;28;20217;-48
2023/11/07 12:23:14;;;;;;;1.17;0.60;;;;;;;11.30;86.67;97702.16;6181226;28;20193;-50
2023/11/07 12:26:18;;;;;;;1.00;0.67;;;;;;;11.34;86.82;97698.75;6192743;28;20197;-50
2023/11/07 12:29:31;;;;;;;0.83;0.53;;;;;;;11.40;87.20;97698.84;6196638;28;20220;-49
2023/11/07 12:32:33;;;;;;;1.60;0.80;;;;;;;11.45;87.01;97693.56;6220745;28;20223;-50
2023/11/07 12:35:36;;;;;;;0.47;0.47;;;;;;;11.46;87.17;97693.31;6224249;28;20192;-48
2023/11/07 12:38:41;;;;;;;0.50;0.50;;;;;;;11.47;87.39;97686.09;6221060;28;20193;-49
2023/11/07 12:41:44;;;;;;;0.53;0.50;;;;;;;11.50;88.18;97674.97;6220746;28;20668;-48
2023/11/07 12:44:50;;;;;;;0.70;0.70;;;;;;;11.52;88.22;97673.63;6221255;28;20665;-49
2023/11/07 12:47:59;;;;;;;2.77;0.80;;;;;;;11.59;87.37;97665.47;6221306;28;20193;-49
2023/11/07 12:51:03;;;;;;;1.20;0.70;;;;;;;11.63;87.15;97659.38;6221434;28;20271;-49
2023/11/07 12:54:05;;;;;;;1.43;0.83;;;;;;;11.66;82.88;97655.41;6220933;28;20591;-48
2023/11/07 12:57:07;;;;;;;1.70;1.03;;;;;;;11.63;77.38;97654.06;6221098;28;20679;-50
2023/11/07 13:00:10;;;;;;;1.07;0.70;;;;;;;11.61;79.39;97636.66;6218444;28;20208;-51
2023/11/07 13:03:13;;;;;;;1.90;1.03;;;;;;;11.75;79.01;97642.44;6221164;28;20189;-52
2023/11/07 13:06:19;;;;;;;0.80;0.70;;;;;;;11.75;77.23;97631.75;6218921;28;20208;-49
2023/11/07 13:09:35;;;;;;;1.20;0.70;;;;;;;11.87;77.92;97643.13;6220504;28;20193;-50
2023/11/07 13:12:37;;;;;;;1.27;0.80;;;;;;;11.92;77.73;97643.19;6218398;28;20336;-50
2023/11/07 13:15:40;;;;;;;2.00;1.00;;;;;;;11.90;76.00;97639.97;6220609;28;20661;-49
2023/11/07 13:18:47;;;;;;;0.90;0.83;;;;;;;11.89;75.40;97638.34;6220692;28;21171;-51
2023/11/07 13:21:49;;;;;;;2.20;0.67;;;;;;;11.86;76.87;97631.63;6218445;28;20673;-51
2023/11/07 13:24:51;;;;;;;2.47;0.87;;;;;;;11.75;77.85;97610.41;6220153;28;20207;-49
2023/11/07 13:27:53;;;;;;;1.77;0.77;;;;;;;11.83;77.79;97624.16;6219230;28;20208;-49
2023/11/07 13:30:55;;;;;;;2.83;0.80;;;;;;;11.85;79.40;97623.88;6219904;28;20237;-49
2023/11/07 13:33:57;;;;;;;1.80;0.80;;;;;;;11.83;79.88;97618.00;6221164;28;20704;-49
2023/11/07 13:37:00;;;;;;;1.97;0.87;;;;;;;11.77;79.58;97600.28;6220336;28;20731;-48
2023/11/07 13:40:06;;;;;;;2.13;1.03;;;;;;;11.82;75.13;97611.03;6220503;28;20733;-50
2023/11/07 13:43:08;;;;;;;2.13;0.63;;;;;;;11.84;76.69;97606.28;6220217;28;20197;-49
2023/11/07 13:46:10;;;;;;;2.27;0.63;;;;;;;11.82;75.80;97613.69;6220327;28;20201;-52
2023/11/07 13:49:13;;;;;;;0.90;0.80;;;;;;;11.79;75.71;97596.31;6217241;28;20196;-50
2023/11/07 13:52:17;;;;;;;1.73;0.80;;;;;;;11.83;74.86;97575.31;6216022;28;20197;-49
2023/11/07 13:55:19;;;;;;;1.23;1.00;;;;;;;11.82;75.33;97600.34;6219606;28;20203;-51
2023/11/07 13:58:21;;;;;;;2.80;1.47;;;;;;;11.87;76.22;97606.59;6219845;28;20222;-51
2023/11/07 14:01:24;;;;;;;1.23;0.83;;;;;;;11.72;77.67;97608.22;6219222;28;20210;-51
2023/11/07 14:04:26;;;;;;;1.70;1.00;;;;;;;11.66;77.83;97610.03;6219073;28;20185;-50
2023/11/07 14:07:28;;;;;;;1.87;1.03;;;;;;;11.38;78.78;97589.72;6216979;28;20272;-51
2023/11/07 14:10:31;;;;;;;2.33;1.00;;;;;;;11.32;80.41;97602.19;6219613;28;20275;-50
2023/11/07 14:13:34;;;;;;;1.27;0.90;;;;;;;11.10;82.38;97606.72;6217277;28;20218;-50
2023/11/07 14:16:37;;;;;;;1.30;1.00;;;;;;;10.96;83.56;97608.13;6216707;28;20200;-50
2023/11/07 14:19:39;;;;;;;2.30;0.90;;;;;;;10.75;85.07;97594.50;6219298;28;20331;-49
2023/11/07 14:22:42;;;;;;;1.10;0.83;;;;;;;10.76;85.85;97600.63;6219103;28;20188;-48
2023/11/07 14:25:45;;;;;;;0.83;0.80;;;;;;;10.62;87.10;97594.84;6219233;28;20569;-50
2023/11/07 14:28:47;;;;;;;1.97;0.77;;;;;;;10.50;88.07;97594.94;6198963;28;20200;-52